createdAt,value
2023-02-22T00:02:13.168Z,10.38
2023-02-22T00:04:45.727Z,10.34
2023-02-22T00:07:21.438Z,10.36
2023-02-22T00:09:53.956Z,10.39
2023-02-22T00:12:29.228Z,10.37
2023-02-22T00:15:03.208Z,10.38
2023-02-22T00:17:35.784Z,10.35
2023-02-22T00:20:09.981Z,10.32
2023-02-22T00:22:46.254Z,10.33
2023-02-22T00:25:20.311Z,10.34
2023-02-22T00:27:53.812Z,10.35
2023-02-22T00:30:28.903Z,10.31
2023-02-22T00:33:01.683Z,10.31
2023-02-22T00:35:34.287Z,10.27
2023-02-22T00:38:06.991Z,10.33
2023-02-22T00:40:40.305Z,10.32
2023-02-22T00:43:12.960Z,10.31
2023-02-22T00:45:49.111Z,10.29
2023-02-22T00:48:23.647Z,10.31
2023-02-22T00:50:57.672Z,10.21
2023-02-22T00:53:30.436Z,10.27
2023-02-22T00:56:02.979Z,10.26
2023-02-22T00:58:35.566Z,10.32
2023-02-22T01:01:09.550Z,10.28
2023-02-22T01:03:44.119Z,10.18
2023-02-22T01:06:17.085Z,10.13
2023-02-22T01:08:49.852Z,10.09
2023-02-22T01:11:23.390Z,10.11
2023-02-22T01:13:57.766Z,10.15
2023-02-22T01:16:31.976Z,10.08
2023-02-22T01:19:06.527Z,10.05
2023-02-22T01:21:41.195Z,10.11
2023-02-22T01:24:16.451Z,10.06
2023-02-22T01:26:51.938Z,10.02
2023-02-22T01:29:24.510Z,10.03
2023-02-22T01:31:58.589Z,10.05
2023-02-22T01:34:33.051Z,10.06
2023-02-22T01:37:06.419Z,9.99
2023-02-22T01:39:39.059Z,9.97
2023-02-22T01:42:12.271Z,10.06
2023-02-22T01:44:44.840Z,10.01
2023-02-22T01:47:18.872Z,9.93
2023-02-22T01:49:53.718Z,9.93
2023-02-22T01:52:26.418Z,9.87
2023-02-22T01:55:00.216Z,9.99
2023-02-22T01:57:35.625Z,9.90
2023-02-22T02:00:11.126Z,9.90
2023-02-22T02:02:52.118Z,9.90
2023-02-22T02:05:31.303Z,9.88
2023-02-22T02:08:06.960Z,9.84
2023-02-22T02:10:40.175Z,9.89
2023-02-22T02:13:12.759Z,9.78
2023-02-22T02:15:45.899Z,9.82
2023-02-22T02:18:20.226Z,9.80
2023-02-22T02:21:01.176Z,9.78
2023-02-22T02:23:49.494Z,9.73
2023-02-22T02:26:41.716Z,9.69
2023-02-22T02:29:44.201Z,9.69
2023-02-22T02:32:28.022Z,9.68
2023-02-22T02:35:05.393Z,9.69
2023-02-22T02:37:43.088Z,9.67
2023-02-22T02:40:21.938Z,9.65
2023-02-22T02:42:59.417Z,9.69
2023-02-22T02:45:36.266Z,9.67
2023-02-22T02:48:11.142Z,9.67
2023-02-22T02:50:46.309Z,9.68
2023-02-22T02:53:21.811Z,9.62
2023-02-22T02:55:55.649Z,9.62
2023-02-22T02:58:29.080Z,9.66
2023-02-22T03:01:04.419Z,9.62
2023-02-22T03:03:47.608Z,9.57
2023-02-22T03:06:38.215Z,9.64
2023-02-22T03:09:16.937Z,9.58
2023-02-22T03:11:52.767Z,9.58
2023-02-22T03:14:28.099Z,9.58
2023-02-22T03:17:03.476Z,9.56
2023-02-22T03:19:39.319Z,9.58
2023-02-22T03:22:14.741Z,9.58
2023-02-22T03:24:52.977Z,9.61
2023-02-22T03:27:29.948Z,9.59
2023-02-22T03:30:06.581Z,9.63
2023-02-22T03:32:42.263Z,9.62
2023-02-22T03:35:19.618Z,9.59
2023-02-22T03:37:55.457Z,9.58
2023-02-22T03:40:30.052Z,9.55
2023-02-22T03:43:05.908Z,9.54
2023-02-22T03:45:43.514Z,9.58
2023-02-22T03:48:18.643Z,9.58
2023-02-22T03:50:53.017Z,9.57
2023-02-22T03:53:26.765Z,9.55
2023-02-22T03:56:00.184Z,9.58
2023-02-22T03:58:33.407Z,9.53
2023-02-22T04:01:06.332Z,9.56
2023-02-22T04:03:40.206Z,9.57
2023-02-22T04:06:14.186Z,9.55
2023-02-22T04:08:46.860Z,9.50
2023-02-22T04:11:19.472Z,9.50
2023-02-22T04:13:52.444Z,9.53
2023-02-22T04:16:25.002Z,9.57
2023-02-22T04:18:58.146Z,9.52
2023-02-22T04:21:32.144Z,9.57
2023-02-22T04:24:06.029Z,9.53
2023-02-22T04:26:38.657Z,9.48
2023-02-22T04:29:12.724Z,9.51
2023-02-22T04:31:47.147Z,9.57
2023-02-22T04:34:20.944Z,9.55
2023-02-22T04:36:55.419Z,9.52
2023-02-22T04:39:28.492Z,9.49
2023-02-22T04:42:01.116Z,9.55
2023-02-22T04:44:33.860Z,9.55
2023-02-22T04:47:06.486Z,9.54
2023-02-22T04:49:39.363Z,9.50
2023-02-22T04:52:15.948Z,9.51
2023-02-22T04:54:48.952Z,9.51
2023-02-22T04:57:21.551Z,9.50
2023-02-22T04:59:55.883Z,9.49
2023-02-22T05:02:29.600Z,9.43
2023-02-22T05:05:02.183Z,9.42
2023-02-22T05:07:36.132Z,9.46
2023-02-22T05:10:08.825Z,9.46
2023-02-22T05:12:41.468Z,9.45
2023-02-22T05:15:17.471Z,9.50
2023-02-22T05:17:50.140Z,9.40
2023-02-22T05:20:24.951Z,9.52
2023-02-22T05:22:59.785Z,9.43
2023-02-22T05:25:33.268Z,9.49
2023-02-22T05:28:08.640Z,9.48
2023-02-22T05:30:41.935Z,9.41
2023-02-22T05:33:14.558Z,9.43
2023-02-22T05:35:47.236Z,9.40
2023-02-22T05:38:21.309Z,9.43
2023-02-22T05:40:53.920Z,9.38
2023-02-22T05:43:26.738Z,9.38
2023-02-22T05:45:59.283Z,9.39
2023-02-22T05:48:32.185Z,9.43
2023-02-22T05:51:04.873Z,9.47
2023-02-22T05:53:38.776Z,9.40
2023-02-22T05:56:11.424Z,9.35
2023-02-22T05:58:43.982Z,9.36
2023-02-22T06:01:17.056Z,9.38
2023-02-22T06:03:50.280Z,9.38
2023-02-22T06:06:22.879Z,9.39
2023-02-22T06:08:56.770Z,9.39
2023-02-22T06:11:29.248Z,9.38
2023-02-22T06:14:01.787Z,9.36
2023-02-22T06:16:34.380Z,9.34
2023-02-22T06:19:07.004Z,9.35
2023-02-22T06:21:39.531Z,9.28
2023-02-22T06:24:13.589Z,9.39
2023-02-22T06:26:46.539Z,9.35
2023-02-22T06:29:19.105Z,9.38
2023-02-22T06:31:51.729Z,9.39
2023-02-22T06:34:24.440Z,9.39
2023-02-22T06:36:59.108Z,9.38
2023-02-22T06:39:34.116Z,9.34
2023-02-22T06:42:06.872Z,9.31
2023-02-22T06:44:39.562Z,9.34
2023-02-22T06:47:12.181Z,9.28
2023-02-22T06:49:44.929Z,9.29
2023-02-22T06:52:18.763Z,9.32
2023-02-22T06:54:52.798Z,9.24
2023-02-22T06:57:25.789Z,9.27
2023-02-22T06:59:58.444Z,9.24
2023-02-22T07:02:31.131Z,9.31
2023-02-22T07:05:03.751Z,9.29
2023-02-22T07:07:36.336Z,9.26
2023-02-22T07:10:16.848Z,9.26
2023-02-22T07:12:49.991Z,9.22
2023-02-22T07:15:23.710Z,9.26
2023-02-22T07:17:56.613Z,9.22
2023-02-22T07:20:30.166Z,9.22
2023-02-22T07:23:02.767Z,9.17
2023-02-22T07:25:36.774Z,9.18
2023-02-22T07:28:10.892Z,9.21
2023-02-22T07:30:43.847Z,9.22
2023-02-22T07:33:16.493Z,9.20
2023-02-22T07:35:49.678Z,9.22
2023-02-22T07:38:22.216Z,9.24
2023-02-22T07:40:57.881Z,9.21
2023-02-22T07:43:31.546Z,9.20
2023-02-22T07:46:05.242Z,9.23
2023-02-22T07:48:37.860Z,9.19
2023-02-22T07:51:10.901Z,9.21
2023-02-22T07:53:43.647Z,9.23
2023-02-22T07:56:18.218Z,9.22
2023-02-22T07:58:50.801Z,9.22
2023-02-22T08:01:24.348Z,9.22
2023-02-22T08:03:57.051Z,9.21
2023-02-22T08:06:30.155Z,9.22
2023-02-22T08:09:02.754Z,9.20
2023-02-22T08:11:36.731Z,9.21
2023-02-22T08:14:09.354Z,9.16
2023-02-22T08:16:42.087Z,9.20
2023-02-22T08:19:14.628Z,9.17
2023-02-22T08:21:47.461Z,9.16
2023-02-22T08:24:20.191Z,9.19
2023-02-22T08:26:54.364Z,9.24
2023-02-22T08:29:33.335Z,9.25
2023-02-22T08:32:06.634Z,9.27
2023-02-22T08:34:39.179Z,9.26
2023-02-22T08:37:11.834Z,9.24
2023-02-22T08:39:44.508Z,9.25
2023-02-22T08:42:18.549Z,9.29
2023-02-22T08:44:51.142Z,9.21
2023-02-22T08:47:23.828Z,9.28
2023-02-22T08:49:56.504Z,9.30
2023-02-22T08:52:29.203Z,9.32
2023-02-22T08:55:01.829Z,9.36
2023-02-22T08:57:35.789Z,9.38
2023-02-22T09:00:08.942Z,9.45
2023-02-22T09:02:41.629Z,9.37
2023-02-22T09:05:14.239Z,9.48
2023-02-22T09:07:46.875Z,9.50
2023-02-22T09:10:21.441Z,9.53
2023-02-22T09:12:56.525Z,9.60
2023-02-22T09:15:29.819Z,9.55
2023-02-22T09:18:02.896Z,9.61
2023-02-22T09:20:36.182Z,9.58
2023-02-22T09:23:09.878Z,9.71
2023-02-22T09:25:42.537Z,9.63
2023-02-22T09:28:16.507Z,9.76
2023-02-22T09:30:49.648Z,9.78
2023-02-22T09:33:23.141Z,9.82
2023-02-22T09:35:55.706Z,9.87
2023-02-22T09:38:30.093Z,9.89
2023-02-22T09:41:09.026Z,9.88
2023-02-22T09:43:46.528Z,9.90
2023-02-22T09:46:22.867Z,9.93
2023-02-22T09:48:59.192Z,9.98
2023-02-22T09:51:35.937Z,9.96
2023-02-22T09:54:14.554Z,10.03
2023-02-22T09:56:48.230Z,10.00
2023-02-22T09:59:26.995Z,10.03
2023-02-22T10:02:06.463Z,10.02
2023-02-22T10:04:42.526Z,10.02
2023-02-22T10:07:20.975Z,10.02
2023-02-22T10:09:56.722Z,10.05
2023-02-22T10:12:30.984Z,10.07
2023-02-22T10:15:35.178Z,10.06
2023-02-22T10:18:26.308Z,10.06
2023-02-22T10:21:02.463Z,10.08
2023-02-22T10:23:37.467Z,10.13
2023-02-22T10:26:16.208Z,10.13
2023-02-22T10:28:53.746Z,10.14
2023-02-22T10:31:29.626Z,10.23
2023-02-22T10:34:03.649Z,10.23
2023-02-22T10:36:39.216Z,10.31
2023-02-22T10:39:16.443Z,10.35
2023-02-22T10:41:50.878Z,10.41
2023-02-22T10:44:23.926Z,10.52
2023-02-22T10:46:59.779Z,10.57
2023-02-22T10:49:36.107Z,10.59
2023-02-22T10:52:15.365Z,10.70
2023-02-22T10:54:49.202Z,10.73
2023-02-22T10:57:24.069Z,10.72
2023-02-22T10:59:57.795Z,10.72
2023-02-22T11:02:32.992Z,10.77
2023-02-22T11:05:06.138Z,10.78
2023-02-22T11:07:39.033Z,10.83
2023-02-22T11:10:11.758Z,10.91
2023-02-22T11:12:44.725Z,10.89
2023-02-22T11:15:28.015Z,10.97
2023-02-22T11:18:02.367Z,10.97
2023-02-22T11:20:38.613Z,11.02
2023-02-22T11:23:12.367Z,11.05
2023-02-22T11:25:45.068Z,11.02
2023-02-22T11:28:20.779Z,11.06
2023-02-22T11:30:53.524Z,11.09
2023-02-22T11:33:29.398Z,11.14
2023-02-22T11:36:04.871Z,11.14
2023-02-22T11:38:38.351Z,11.15
2023-02-22T11:41:15.748Z,11.19
2023-02-22T11:43:49.850Z,11.17
2023-02-22T11:46:23.541Z,11.25
2023-02-22T11:49:00.191Z,11.27
2023-02-22T11:51:53.665Z,11.28
2023-02-22T11:54:31.748Z,11.32
2023-02-22T11:57:10.024Z,11.41
2023-02-22T11:59:48.122Z,11.43
2023-02-22T12:02:30.486Z,11.50
2023-02-22T12:05:13.212Z,11.64
2023-02-22T12:07:52.333Z,11.69
2023-02-22T12:10:42.536Z,11.72
2023-02-22T12:13:27.035Z,11.79
2023-02-22T12:16:04.831Z,11.88
2023-02-22T12:18:40.647Z,11.85
2023-02-22T12:21:16.893Z,11.83
2023-02-22T12:23:53.049Z,11.93
2023-02-22T12:26:27.350Z,11.94
2023-02-22T12:29:05.147Z,12.00
2023-02-22T12:31:40.362Z,11.99
2023-02-22T12:34:19.929Z,12.02
2023-02-22T12:36:55.555Z,11.95
2023-02-22T12:39:40.994Z,11.93
2023-02-22T12:42:22.815Z,12.06
2023-02-22T12:44:57.694Z,12.04
2023-02-22T12:47:34.554Z,12.10
2023-02-22T12:50:14.204Z,12.11
2023-02-22T12:52:53.083Z,12.19
2023-02-22T12:55:27.329Z,12.22
2023-02-22T12:58:07.038Z,12.26
2023-02-22T13:00:42.736Z,12.25
2023-02-22T13:03:25.610Z,12.24
2023-02-22T13:06:01.845Z,12.33
2023-02-22T13:08:40.154Z,12.39
2023-02-22T13:11:17.710Z,12.39
2023-02-22T13:13:54.603Z,12.43
2023-02-22T13:16:30.982Z,12.33
2023-02-22T13:19:05.922Z,12.38
2023-02-22T13:21:44.170Z,12.45
2023-02-22T13:24:20.624Z,12.31
2023-02-22T13:26:55.174Z,12.33
2023-02-22T13:29:30.938Z,12.41
2023-02-22T13:32:13.018Z,12.41
2023-02-22T13:34:59.461Z,12.43
2023-02-22T13:37:42.167Z,12.41
2023-02-22T13:40:27.289Z,12.46
2023-02-22T13:43:16.403Z,12.47
2023-02-22T13:45:56.680Z,12.48
2023-02-22T13:48:38.771Z,12.54
2023-02-22T13:51:14.895Z,12.55
2023-02-22T13:53:51.315Z,12.53
2023-02-22T13:56:26.035Z,12.55
2023-02-22T13:59:00.018Z,12.54
2023-02-22T14:01:44.105Z,12.51
2023-02-22T14:04:38.215Z,12.59
2023-02-22T14:07:33.832Z,12.61
2023-02-22T14:10:06.474Z,12.67
2023-02-22T14:12:50.267Z,12.67
2023-02-22T14:15:31.234Z,12.66
2023-02-22T14:18:05.153Z,12.70
2023-02-22T14:20:38.581Z,12.70
2023-02-22T14:23:33.439Z,12.71
2023-02-22T14:26:13.727Z,12.67
2023-02-22T14:28:53.090Z,12.68
2023-02-22T14:31:36.072Z,12.78
2023-02-22T14:34:11.111Z,12.70
2023-02-22T14:36:46.607Z,12.72
2023-02-22T14:39:21.692Z,12.68
2023-02-22T14:42:01.429Z,12.71
2023-02-22T14:44:37.890Z,12.63
2023-02-22T14:47:16.325Z,12.67
2023-02-22T14:49:52.014Z,12.61
2023-02-22T14:52:26.367Z,12.67
2023-02-22T14:55:04.373Z,12.65
2023-02-22T14:57:42.191Z,12.66
2023-02-22T15:00:30.566Z,12.58
2023-02-22T15:03:03.830Z,12.60
2023-02-22T15:05:38.480Z,12.50
2023-02-22T15:08:13.612Z,12.47
2023-02-22T15:10:47.065Z,12.48
2023-02-22T15:13:20.294Z,12.38
2023-02-22T15:16:00.520Z,12.37
2023-02-22T15:18:36.340Z,12.34
2023-02-22T15:21:13.451Z,12.32
2023-02-22T15:23:46.657Z,12.30
2023-02-22T15:26:26.374Z,12.27
2023-02-22T15:29:00.052Z,12.18
2023-02-22T15:31:34.681Z,12.17
2023-02-22T15:34:11.218Z,12.14
2023-02-22T15:36:44.659Z,12.11
2023-02-22T15:39:20.352Z,12.10
2023-02-22T15:42:02.073Z,12.08
2023-02-22T15:44:38.421Z,12.06
2023-02-22T15:47:17.314Z,11.97
2023-02-22T15:50:05.896Z,11.99
2023-02-22T15:52:38.621Z,11.99
2023-02-22T15:55:11.788Z,11.97
2023-02-22T15:57:45.028Z,11.92
2023-02-22T16:00:22.046Z,11.92
2023-02-22T16:02:58.359Z,11.91
2023-02-22T16:05:34.996Z,11.92
2023-02-22T16:08:14.220Z,11.92
2023-02-22T16:10:50.604Z,11.89
2023-02-22T16:13:31.969Z,11.77
2023-02-22T16:16:06.606Z,11.86
2023-02-22T16:18:41.397Z,11.95
2023-02-22T16:21:14.812Z,11.93
2023-02-22T16:23:48.307Z,11.93
2023-02-22T16:26:25.439Z,11.96
2023-02-22T16:28:59.297Z,11.94
2023-02-22T16:31:33.793Z,11.87
2023-02-22T16:34:08.852Z,11.89
2023-02-22T16:36:42.134Z,11.84
2023-02-22T16:39:19.509Z,11.84
2023-02-22T16:41:52.261Z,11.87
2023-02-22T16:44:25.458Z,11.91
2023-02-22T16:46:59.186Z,11.82
2023-02-22T16:49:33.273Z,11.81
2023-02-22T16:52:08.344Z,11.85
2023-02-22T16:54:42.836Z,11.89
2023-02-22T16:57:18.020Z,11.88
2023-02-22T16:59:52.899Z,11.78
2023-02-22T17:02:27.829Z,11.72
2023-02-22T17:05:01.887Z,11.58
2023-02-22T17:07:34.706Z,11.60
2023-02-22T17:10:07.993Z,11.60
2023-02-22T17:12:43.866Z,11.62
2023-02-22T17:15:21.757Z,11.55
2023-02-22T17:17:54.800Z,11.57
2023-02-22T17:20:30.979Z,11.59
2023-02-22T17:23:04.853Z,11.53
2023-02-22T17:25:38.690Z,11.59
2023-02-22T17:28:11.329Z,11.55
2023-02-22T17:30:45.233Z,11.55
2023-02-22T17:33:19.125Z,11.58
2023-02-22T17:35:53.829Z,11.52
2023-02-22T17:38:29.026Z,11.51
2023-02-22T17:41:01.917Z,11.49
2023-02-22T17:43:36.037Z,11.48
2023-02-22T17:46:09.079Z,11.45
2023-02-22T17:48:41.917Z,11.44
2023-02-22T17:51:16.221Z,11.39
2023-02-22T17:53:48.849Z,11.37
2023-02-22T17:56:21.655Z,11.34
2023-02-22T17:58:55.550Z,11.34
2023-02-22T18:01:29.703Z,11.29
2023-02-22T18:04:03.582Z,11.29
2023-02-22T18:06:40.251Z,11.29
2023-02-22T18:09:14.568Z,11.30
2023-02-22T18:11:47.664Z,11.31
2023-02-22T18:14:20.484Z,11.31
2023-02-22T18:16:53.246Z,11.24
2023-02-22T18:19:25.946Z,11.28
2023-02-22T18:22:03.230Z,11.26
2023-02-22T18:24:35.822Z,11.30
2023-02-22T18:27:08.515Z,11.29
2023-02-22T18:29:41.452Z,11.29
2023-02-22T18:32:17.102Z,11.30
2023-02-22T18:34:50.051Z,11.28
2023-02-22T18:37:28.085Z,11.30
2023-02-22T18:40:00.838Z,11.28
2023-02-22T18:42:33.491Z,11.25
2023-02-22T18:45:06.886Z,11.28
2023-02-22T18:47:39.914Z,11.24
2023-02-22T18:50:13.767Z,11.25
2023-02-22T18:52:47.722Z,11.22
2023-02-22T18:55:21.779Z,11.19
2023-02-22T18:57:55.834Z,11.24
2023-02-22T19:00:28.729Z,11.24
2023-02-22T19:03:01.749Z,11.23
2023-02-22T19:05:36.367Z,11.24
2023-02-22T19:08:11.357Z,11.24
2023-02-22T19:10:44.576Z,11.19
2023-02-22T19:13:17.288Z,11.21
2023-02-22T19:15:50.055Z,11.20
2023-02-22T19:18:23.698Z,11.18
2023-02-22T19:20:56.994Z,11.20
2023-02-22T19:23:34.477Z,11.22
2023-02-22T19:26:09.354Z,11.16
2023-02-22T19:28:42.301Z,11.17
2023-02-22T19:31:15.828Z,11.18
2023-02-22T19:33:51.281Z,11.19
2023-02-22T19:36:24.219Z,11.17
2023-02-22T19:39:01.617Z,11.16
2023-02-22T19:41:34.499Z,11.15
2023-02-22T19:44:07.669Z,11.15
2023-02-22T19:46:41.175Z,11.15
2023-02-22T19:49:13.986Z,11.16
2023-02-22T19:51:46.740Z,11.13
2023-02-22T19:54:21.571Z,11.14
2023-02-22T19:56:54.568Z,11.11
2023-02-22T19:59:27.517Z,11.15
2023-02-22T20:02:00.042Z,11.13
2023-02-22T20:04:34.166Z,11.11
2023-02-22T20:07:07.200Z,11.13
2023-02-22T20:09:43.177Z,11.12
2023-02-22T20:12:16.573Z,11.12
2023-02-22T20:14:49.274Z,11.14
2023-02-22T20:17:21.950Z,11.09
2023-02-22T20:19:54.781Z,11.08
2023-02-22T20:22:27.528Z,11.07
2023-02-22T20:25:01.700Z,11.06
2023-02-22T20:27:35.132Z,11.07
2023-02-22T20:30:09.929Z,11.06
2023-02-22T20:32:42.759Z,11.08
2023-02-22T20:35:16.545Z,11.03
2023-02-22T20:37:49.243Z,11.05
2023-02-22T20:40:23.497Z,11.03
2023-02-22T20:42:57.069Z,11.03
2023-02-22T20:45:32.304Z,11.04
2023-02-22T20:48:05.490Z,11.07
2023-02-22T20:50:38.193Z,11.08
2023-02-22T20:53:10.951Z,11.07
2023-02-22T20:55:50.362Z,11.08
2023-02-22T20:58:30.444Z,11.10
2023-02-22T21:01:06.318Z,11.04
2023-02-22T21:03:39.442Z,11.03
2023-02-22T21:06:15.402Z,11.05
2023-02-22T21:08:50.795Z,11.07
2023-02-22T21:11:26.556Z,11.06
2023-02-22T21:14:00.102Z,11.03
2023-02-22T21:16:33.847Z,11.08
2023-02-22T21:19:07.935Z,11.02
2023-02-22T21:21:40.731Z,11.00
2023-02-22T21:24:13.716Z,11.02
2023-02-22T21:26:47.803Z,11.03
2023-02-22T21:29:20.814Z,11.05
2023-02-22T21:31:53.745Z,10.99
2023-02-22T21:34:26.658Z,10.95
2023-02-22T21:36:59.318Z,11.00
2023-02-22T21:39:32.265Z,10.99
2023-02-22T21:42:07.384Z,11.02
2023-02-22T21:44:40.166Z,10.98
2023-02-22T21:47:12.872Z,10.96
2023-02-22T21:49:45.757Z,10.96
2023-02-22T21:52:18.565Z,10.96
2023-02-22T21:54:51.259Z,10.95
2023-02-22T21:57:26.205Z,10.94
2023-02-22T21:59:58.897Z,10.96
2023-02-22T22:02:32.720Z,10.95
2023-02-22T22:05:06.010Z,10.94
2023-02-22T22:07:38.659Z,10.91
2023-02-22T22:10:18.374Z,10.90
2023-02-22T22:12:52.898Z,10.89
2023-02-22T22:15:25.670Z,10.86
2023-02-22T22:18:05.495Z,10.87
2023-02-22T22:20:39.035Z,10.88
2023-02-22T22:23:12.396Z,10.89
2023-02-22T22:25:45.048Z,10.91
2023-02-22T22:28:19.019Z,10.87
2023-02-22T22:30:51.711Z,10.89
2023-02-22T22:33:24.440Z,10.83
2023-02-22T22:35:57.932Z,10.88
2023-02-22T22:38:30.855Z,10.85
2023-02-22T22:41:05.590Z,10.83
2023-02-22T22:43:41.241Z,10.87
2023-02-22T22:46:14.552Z,10.87
2023-02-22T22:48:47.725Z,10.83
2023-02-22T22:51:21.769Z,10.86
2023-02-22T22:53:54.782Z,10.86
2023-02-22T22:56:27.832Z,10.87
2023-02-22T22:59:07.455Z,10.87
2023-02-22T23:01:44.176Z,10.86
2023-02-22T23:04:17.830Z,10.84
2023-02-22T23:06:51.503Z,10.81
2023-02-22T23:09:25.187Z,10.85
2023-02-22T23:12:08.496Z,10.88
2023-02-22T23:14:44.357Z,10.84
2023-02-22T23:17:30.791Z,10.81
2023-02-22T23:20:11.159Z,10.85
2023-02-22T23:22:47.169Z,10.85
2023-02-22T23:25:20.186Z,10.82
2023-02-22T23:27:54.744Z,10.83
2023-02-22T23:30:30.629Z,10.81
2023-02-22T23:33:03.541Z,10.79
2023-02-22T23:35:36.374Z,10.78
2023-02-22T23:38:11.186Z,10.77
2023-02-22T23:40:44.757Z,10.81
2023-02-22T23:43:17.435Z,10.79
2023-02-22T23:45:56.571Z,10.78
2023-02-22T23:48:30.113Z,10.78
2023-02-22T23:51:09.285Z,10.82
2023-02-22T23:53:45.994Z,10.80
2023-02-22T23:56:22.175Z,10.81
2023-02-22T23:58:57.473Z,10.77
